Summerfield, KS (66541)

5:40 AM CDT on June 30, 2015 (GMT -0500)
Beatrice Municipal | | Change Station
CLOSE
Current Station
Airport
Location: Beatrice,
Elevation: 1322 ft
Nearby Weather Stations
Active Advisory: Flood Warning

Elev 1322 ft 40.30 °N, 96.75 °W | Updated 25 minutes ago

Partly Cloudy
Partly Cloudy
64 °F
Feels Like 64 °F
N
0
Wind Variable Wind from North

Today
High -- | Low -- °F
--% Chance of Precip.
Yesterday
High -- | Low -- °F
Precip. -- in
5:59 AM 8:57 PM
Waxing Gibbous, 97% visible
Pressure 29.95 in
Visibility 7.0 miles
Clouds Clear
Dew Point 62 °F
Humidity 92%
Rainfall 0.00 in
Snow Depth Not available.
UV 0 out of 12
Pollen 4.30 out of 12
Air Quality Not available.
Flu Activity No Activity
METAR KBIE 301015Z AUTO 00000KT 7SM CLR 18/17 A2995 RMK AO2 T01800166

More Conditions Fewer Conditions

Pressure 29.95 in
Visibility 7.0 miles
Clouds Clear
Dew Point 62 °F
Humidity 92%
Rainfall 0.00 in
Snow Depth Not available.
UV 0 out of 12
Pollen 4.30 out of 12
Air Quality Not available.
Flu Activity No Activity
METAR KBIE 301015Z AUTO 00000KT 7SM CLR 18/17 A2995 RMK AO2 T01800166

More Conditions Fewer Conditions

10-Day Weather Forecast

×

Almanac

Astronomy

Jun. 30, 2015 Rise Set
Actual Time
Civil Twilight
Nautical Twilight
Astronomical Twilight
Moon
Length of Visible Light
Length of Day
Tomorrow will be .
, % of the Moon is Illuminated

Today's Extremes

State Highs State Lows

Community

WunderPhotos

Upload Photos

1,833,977 photos uploaded!

WunderBlogs® & News

Nearby

Air Quality

  Air Quality AQ Index Pollutant
Not available.

Snow Depth

Station Depth Elevation

Earthquake Activity

City Distance Mag. Time & Date
Minimum magnitude displayed is 2.5.

Coastal Water Temperatures

Place Temperature

Stations

Nearby Weather Stations

Station Location Temp. Windchill Dew Point Humidity Wind Precip. Elev Updated Type
                   
Flood Warning
Statement as of 7:50 AM CDT on June 29, 2015

The Flood Warning continues for
the big Blue River near Blue Rapids.
* Until Tuesday afternoon.
* At 7:00 am Monday the stage was 27.2 feet.
* Flood stage is 26.0 feet.
* Minor flooding is occurring and minor flooding is forecast.
* Forecast... the river will continue to fall to below flood stage by
Tuesday morning.
* Impact... at 26.0 feet... minor lowland flooding occurs from
Marysville to Tuttle Creek Lake.


Lat... Lon 3971 9666 3968 9658 3957 9655 3957 9659 3968 9669